Terminal Aerodrome Forecast
Issued by NWS

Home | Current Version | Previous Version | Text Only | Print | Product List | Glossary On
Versions: 1 2 3 4 5 6 7 8 9 10 11 12 13 14 15 16 17 18 19 20 21 22 23
000
FTUS45 KPSR 272300
TAFIWA
TAF
KIWA 272335Z 2800/2824 26012KT P6SM FEW150 SCT250
      TEMPO 2800/2802 26012G22KT
     FM280400 12010KT P6SM FEW150 BKN250
     FM281100 14011KT P6SM SCT060 BKN150
     FM282100 24015G25KT P6SM FEW060 BKN100
      AMD LTD TO CLD VIS AND WIND 2803/2813=

USA.gov is the U.S. government's official web portal to all federal, state and local government web resources and services.